createdAt,value
2023-08-26T00:00:39.414Z,8.82
2023-08-26T00:03:07.478Z,8.02
2023-08-26T00:05:35.135Z,9.40
2023-08-26T00:08:02.660Z,7.85
2023-08-26T00:10:30.044Z,7.60
2023-08-26T00:12:57.689Z,8.48
2023-08-26T00:15:25.167Z,10.48
2023-08-26T00:17:52.621Z,9.77
2023-08-26T00:20:22.801Z,10.10
2023-08-26T00:22:50.265Z,11.45
2023-08-26T00:25:17.657Z,8.48
2023-08-26T00:27:45.057Z,10.80
2023-08-26T00:30:12.615Z,8.98
2023-08-26T00:32:40.052Z,8.50
2023-08-26T00:35:07.700Z,10.02
2023-08-26T00:37:35.170Z,8.60
2023-08-26T00:40:02.705Z,8.20
2023-08-26T00:42:30.313Z,10.15
2023-08-26T00:44:57.663Z,11.35
2023-08-26T00:47:25.088Z,8.68
2023-08-26T00:49:52.813Z,7.82
2023-08-26T00:52:20.168Z,8.05
2023-08-26T00:54:47.594Z,9.02
2023-08-26T00:57:14.989Z,9.02
2023-08-26T00:59:42.420Z,7.53
2023-08-26T01:02:09.960Z,7.95
2023-08-26T01:04:37.874Z,8.30
2023-08-26T01:07:05.568Z,8.15
2023-08-26T01:09:33.084Z,8.95
2023-08-26T01:12:03.944Z,9.30
2023-08-26T01:14:31.413Z,8.23
2023-08-26T01:16:59.351Z,8.52
2023-08-26T01:19:52.908Z,7.03
2023-08-26T01:22:21.163Z,6.05
2023-08-26T01:24:49.101Z,5.90
2023-08-26T01:27:16.458Z,7.20
2023-08-26T01:29:44.061Z,7.90
2023-08-26T01:32:18.432Z,6.35
2023-08-26T01:34:49.369Z,9.63
2023-08-26T01:37:19.921Z,9.02
2023-08-26T01:39:49.193Z,8.55
2023-08-26T01:42:18.767Z,8.27
2023-08-26T01:44:46.214Z,7.43
2023-08-26T01:47:13.674Z,8.77
2023-08-26T01:49:41.066Z,8.43
2023-08-26T01:52:08.687Z,5.70
2023-08-26T01:54:36.081Z,5.45
2023-08-26T01:57:03.527Z,7.47
2023-08-26T01:59:30.943Z,5.35
2023-08-26T02:01:58.631Z,8.02
2023-08-26T02:04:26.132Z,7.53
2023-08-26T02:06:53.563Z,6.38
2023-08-26T02:09:20.966Z,6.20
2023-08-26T02:11:48.321Z,8.32
2023-08-26T02:14:15.692Z,7.45
2023-08-26T02:16:43.109Z,6.03
2023-08-26T02:19:10.539Z,6.20
2023-08-26T02:21:37.968Z,6.20
2023-08-26T02:24:05.502Z,6.15
2023-08-26T02:26:33.193Z,5.70
2023-08-26T02:29:00.596Z,6.28
2023-08-26T02:31:27.955Z,6.40
2023-08-26T02:33:55.513Z,6.07
2023-08-26T02:36:22.941Z,8.60
2023-08-26T02:38:50.361Z,12.15
2023-08-26T02:41:17.720Z,7.88
2023-08-26T02:43:45.083Z,7.50
2023-08-26T02:46:12.529Z,6.65
2023-08-26T02:48:40.051Z,5.68
2023-08-26T02:51:07.450Z,6.53
2023-08-26T02:53:34.809Z,4.25
2023-08-26T02:56:02.205Z,4.93
2023-08-26T02:58:29.676Z,10.55
2023-08-26T03:01:01.675Z,7.90
2023-08-26T03:03:29.232Z,5.88
2023-08-26T03:06:00.258Z,6.50
2023-08-26T03:08:27.969Z,8.07
2023-08-26T03:11:02.521Z,9.02
2023-08-26T03:13:29.903Z,7.00
2023-08-26T03:15:58.109Z,6.75
2023-08-26T03:18:26.010Z,5.43
2023-08-26T03:20:53.447Z,5.72
2023-08-26T03:23:20.866Z,4.82
2023-08-26T03:25:48.203Z,4.85
2023-08-26T03:28:15.606Z,6.22
2023-08-26T03:30:42.934Z,7.53
2023-08-26T03:33:10.302Z,5.55
2023-08-26T03:35:39.935Z,5.05
2023-08-26T03:38:07.559Z,7.63
2023-08-26T03:40:35.014Z,5.43
2023-08-26T03:43:02.802Z,6.95
2023-08-26T03:45:33.506Z,5.82
2023-08-26T03:48:01.051Z,6.07
2023-08-26T03:50:28.535Z,7.63
2023-08-26T03:52:55.974Z,5.68
2023-08-26T03:55:23.421Z,5.97
2023-08-26T03:57:50.798Z,4.43
2023-08-26T04:00:18.936Z,5.68
2023-08-26T04:02:46.589Z,6.30
2023-08-26T04:05:15.257Z,9.00
2023-08-26T04:07:42.642Z,9.60
2023-08-26T04:10:10.364Z,5.53
2023-08-26T04:12:37.697Z,8.10
2023-08-26T04:15:05.908Z,6.90
2023-08-26T04:17:33.306Z,6.88
2023-08-26T04:20:00.651Z,5.05
2023-08-26T04:22:28.007Z,12.30
2023-08-26T04:24:56.763Z,6.20
2023-08-26T04:27:24.188Z,5.88
2023-08-26T04:29:51.851Z,8.20
2023-08-26T04:32:20.371Z,4.60
2023-08-26T04:34:48.085Z,6.78
2023-08-26T04:37:15.427Z,7.85
2023-08-26T04:39:42.815Z,5.85
2023-08-26T04:42:10.406Z,4.38
2023-08-26T04:44:37.764Z,4.30
2023-08-26T04:47:05.287Z,7.07
2023-08-26T04:49:32.931Z,6.82
2023-08-26T04:52:00.738Z,4.65
2023-08-26T04:54:28.260Z,6.32
2023-08-26T04:56:55.622Z,4.13
2023-08-26T04:59:22.982Z,5.32
2023-08-26T05:01:50.447Z,6.70
2023-08-26T05:04:17.808Z,4.75
2023-08-26T05:06:45.241Z,7.47
2023-08-26T05:09:12.919Z,6.82
2023-08-26T05:11:41.134Z,6.28
2023-08-26T05:14:08.660Z,8.65
2023-08-26T05:16:37.140Z,6.40
2023-08-26T05:19:04.974Z,5.05
2023-08-26T05:21:32.923Z,6.22
2023-08-26T05:24:01.648Z,5.40
2023-08-26T05:26:29.049Z,5.32
2023-08-26T05:28:56.508Z,5.10
2023-08-26T05:31:23.931Z,6.70
2023-08-26T05:33:51.327Z,4.95
2023-08-26T05:36:19.763Z,6.38
2023-08-26T05:38:47.175Z,4.30
2023-08-26T05:41:15.106Z,6.00
2023-08-26T05:43:42.504Z,4.90
2023-08-26T05:46:09.936Z,4.82
2023-08-26T05:48:40.209Z,4.75
2023-08-26T05:51:07.566Z,4.90
2023-08-26T05:53:35.064Z,5.93
2023-08-26T05:56:02.850Z,4.53
2023-08-26T05:58:30.261Z,4.70
2023-08-26T06:00:58.106Z,4.75
2023-08-26T06:03:25.500Z,6.00
2023-08-26T06:05:52.994Z,4.82
2023-08-26T06:08:20.365Z,6.93
2023-08-26T06:10:47.739Z,4.63
2023-08-26T06:13:15.171Z,5.40
2023-08-26T06:15:42.604Z,4.18
2023-08-26T06:18:09.997Z,3.90
2023-08-26T06:20:40.432Z,4.35
2023-08-26T06:23:07.830Z,5.15
2023-08-26T06:25:35.245Z,6.45
2023-08-26T06:28:02.686Z,4.97
2023-08-26T06:30:30.078Z,4.65
2023-08-26T06:32:57.540Z,4.45
2023-08-26T06:35:28.149Z,4.70
2023-08-26T06:37:55.984Z,4.07
2023-08-26T06:40:23.643Z,4.68
2023-08-26T06:42:51.124Z,3.75
2023-08-26T06:45:18.566Z,4.47
2023-08-26T06:47:46.071Z,5.82
2023-08-26T06:50:13.559Z,5.72
2023-08-26T06:52:40.973Z,4.45
2023-08-26T06:55:10.448Z,4.47
2023-08-26T06:57:37.990Z,4.03
2023-08-26T07:00:06.484Z,4.30
2023-08-26T07:02:33.962Z,3.97
2023-08-26T07:05:01.415Z,5.75
2023-08-26T07:07:28.843Z,4.32
2023-08-26T07:09:56.278Z,4.03
2023-08-26T07:12:23.910Z,7.03
2023-08-26T07:14:51.573Z,5.03
2023-08-26T07:17:19.316Z,4.38
2023-08-26T07:19:46.751Z,8.88
2023-08-26T07:22:14.704Z,3.92
2023-08-26T07:24:42.547Z,4.80
2023-08-26T07:27:09.892Z,4.60
2023-08-26T07:29:37.277Z,4.32
2023-08-26T07:32:07.743Z,3.97
2023-08-26T07:34:35.172Z,3.97
2023-08-26T07:37:02.535Z,3.70
2023-08-26T07:39:30.776Z,4.00
2023-08-26T07:41:58.208Z,4.47
2023-08-26T07:44:25.613Z,5.53
2023-08-26T07:49:23.296Z,4.18
2023-08-26T07:51:50.809Z,3.95
2023-08-26T07:54:18.246Z,7.90
2023-08-26T07:56:45.701Z,6.00
2023-08-26T07:59:13.119Z,6.18
2023-08-26T08:01:40.523Z,4.72
2023-08-26T08:04:08.068Z,5.35
2023-08-26T08:06:35.488Z,4.38
2023-08-26T08:09:02.910Z,3.92
2023-08-26T08:11:30.547Z,6.35
2023-08-26T08:13:57.971Z,5.85
2023-08-26T08:16:27.719Z,4.10
2023-08-26T08:18:56.130Z,4.50
2023-08-26T08:21:23.549Z,3.92
2023-08-26T08:23:50.940Z,5.43
2023-08-26T08:26:18.617Z,5.90
2023-08-26T08:28:45.970Z,8.05
2023-08-26T08:31:13.425Z,4.20
2023-08-26T08:33:40.891Z,4.28
2023-08-26T08:36:08.323Z,5.18
2023-08-26T08:38:35.740Z,3.85
2023-08-26T08:41:03.654Z,4.53
2023-08-26T08:43:32.259Z,8.10
2023-08-26T08:45:59.766Z,6.80
2023-08-26T08:48:27.216Z,4.10
2023-08-26T08:50:55.256Z,4.60
2023-08-26T08:53:28.101Z,3.42
2023-08-26T08:55:55.605Z,4.28
2023-08-26T08:58:23.567Z,5.28
2023-08-26T09:00:51.718Z,3.88
2023-08-26T09:03:20.306Z,3.72
2023-08-26T09:05:47.884Z,4.10
2023-08-26T09:08:15.916Z,5.32
2023-08-26T09:10:43.705Z,5.38
2023-08-26T09:13:11.058Z,6.18
2023-08-26T09:15:38.481Z,5.40
2023-08-26T09:18:10.133Z,5.72
2023-08-26T09:20:42.649Z,5.05
2023-08-26T09:23:09.974Z,4.05
2023-08-26T09:25:37.903Z,5.63
2023-08-26T09:28:05.683Z,3.75
2023-08-26T09:30:33.332Z,4.28
2023-08-26T09:33:00.898Z,4.00
2023-08-26T09:37:59.831Z,4.60
2023-08-26T09:40:27.446Z,4.18
2023-08-26T09:42:54.968Z,5.15
2023-08-26T09:45:22.595Z,4.38
2023-08-26T09:47:53.696Z,4.30
2023-08-26T09:50:32.407Z,3.90
2023-08-26T09:53:00.009Z,3.92
2023-08-26T09:55:27.565Z,4.30
2023-08-26T09:57:55.383Z,4.32
2023-08-26T10:00:23.503Z,6.07
2023-08-26T10:02:52.197Z,4.15
2023-08-26T10:05:23.494Z,4.68
2023-08-26T10:07:52.114Z,3.80
2023-08-26T10:10:41.917Z,5.70
2023-08-26T10:13:09.969Z,3.83
2023-08-26T10:15:37.674Z,3.90
2023-08-26T10:18:17.775Z,4.13
2023-08-26T10:20:45.603Z,7.57
2023-08-26T10:23:14.362Z,7.90
2023-08-26T10:25:42.322Z,6.28
2023-08-26T10:28:10.094Z,7.97
2023-08-26T10:30:38.004Z,8.35
2023-08-26T10:33:06.671Z,8.85
2023-08-26T10:35:34.201Z,7.55
2023-08-26T10:38:16.335Z,11.07
2023-08-26T10:40:47.738Z,7.90
2023-08-26T10:43:15.507Z,7.45
2023-08-26T10:45:47.890Z,16.25
2023-08-26T10:48:19.577Z,9.63
2023-08-26T10:50:59.529Z,10.32
2023-08-26T10:53:26.966Z,7.68
2023-08-26T10:55:55.566Z,10.90
2023-08-26T10:58:23.365Z,8.55
2023-08-26T11:00:52.162Z,9.25
2023-08-26T11:03:20.642Z,9.32
2023-08-26T11:05:49.115Z,12.82
2023-08-26T11:08:16.568Z,11.50
2023-08-26T11:10:44.424Z,10.43
2023-08-26T11:13:13.368Z,10.40
2023-08-26T11:15:44.297Z,11.95
2023-08-26T11:18:13.072Z,12.15
2023-08-26T11:20:40.977Z,10.38
2023-08-26T11:23:08.722Z,10.10
2023-08-26T11:25:36.608Z,12.95
2023-08-26T11:28:04.775Z,9.93
2023-08-26T11:30:32.565Z,10.20
2023-08-26T11:33:00.948Z,9.13
2023-08-26T11:35:28.680Z,11.88
2023-08-26T11:37:56.359Z,10.73
2023-08-26T11:40:25.031Z,12.02
2023-08-26T11:42:52.444Z,11.43
2023-08-26T11:45:19.823Z,9.45
2023-08-26T11:47:47.295Z,10.60
2023-08-26T11:50:14.906Z,8.88
2023-08-26T11:52:44.560Z,8.95
2023-08-26T11:55:12.520Z,8.82
2023-08-26T11:57:40.885Z,9.77
2023-08-26T12:00:12.346Z,10.25
2023-08-26T12:02:39.927Z,10.02
2023-08-26T12:05:07.561Z,9.00
2023-08-26T12:07:35.976Z,10.10
2023-08-26T12:10:13.053Z,8.15
2023-08-26T12:12:40.980Z,7.97
2023-08-26T12:15:12.786Z,9.00
2023-08-26T12:17:59.041Z,10.18
2023-08-26T12:20:33.610Z,11.07
2023-08-26T12:23:02.297Z,9.65
2023-08-26T12:25:32.935Z,8.93
2023-08-26T12:28:07.283Z,8.55
2023-08-26T12:30:34.747Z,9.82
2023-08-26T12:33:02.301Z,9.45
2023-08-26T12:35:29.978Z,8.52
2023-08-26T12:37:57.546Z,10.05
2023-08-26T12:40:25.104Z,9.40
2023-08-26T12:42:53.525Z,7.90
2023-08-26T12:45:20.945Z,7.95
2023-08-26T12:47:48.434Z,6.88
2023-08-26T12:50:16.247Z,6.35
2023-08-26T12:52:43.633Z,5.85
2023-08-26T12:55:12.879Z,7.50
2023-08-26T12:57:41.196Z,4.35
2023-08-26T13:00:09.906Z,4.22
2023-08-26T13:02:38.116Z,6.57
2023-08-26T13:05:09.607Z,4.85
2023-08-26T13:07:37.287Z,5.60
2023-08-26T13:10:05.387Z,4.60
2023-08-26T13:12:33.162Z,6.13
2023-08-26T13:15:00.523Z,2.75
2023-08-26T13:17:28.013Z,4.07
2023-08-26T13:19:59.673Z,4.43
2023-08-26T13:22:29.968Z,3.28
2023-08-26T13:24:58.722Z,3.08
2023-08-26T13:27:26.246Z,2.78
2023-08-26T13:29:53.701Z,1.95
2023-08-26T13:32:21.053Z,1.80
2023-08-26T13:34:48.445Z,1.70
2023-08-26T13:37:15.847Z,3.35
2023-08-26T13:39:43.369Z,2.25
2023-08-26T13:42:11.022Z,1.50
2023-08-26T13:44:38.481Z,3.58
2023-08-26T13:47:06.128Z,2.63
2023-08-26T13:49:33.562Z,2.42
2023-08-26T13:52:01.527Z,1.85
2023-08-26T13:54:28.929Z,0.70
2023-08-26T13:56:56.346Z,0.80
2023-08-26T13:59:25.215Z,2.15
2023-08-26T14:01:52.606Z,1.45
2023-08-26T14:04:20.008Z,3.75
2023-08-26T14:06:47.426Z,1.67
2023-08-26T14:09:15.499Z,1.48
2023-08-26T14:11:44.403Z,1.55
2023-08-26T14:14:12.085Z,4.63
2023-08-26T14:16:39.618Z,1.00
2023-08-26T14:19:07.169Z,0.70
2023-08-26T14:21:34.669Z,0.95
2023-08-26T14:24:02.060Z,1.65
2023-08-26T14:26:29.459Z,0.60
2023-08-26T14:28:57.006Z,1.17
2023-08-26T14:31:24.676Z,1.30
2023-08-26T14:33:52.233Z,1.17
2023-08-26T14:36:20.436Z,1.25
2023-08-26T14:38:47.966Z,1.10
2023-08-26T14:41:15.366Z,1.00
2023-08-26T14:43:43.940Z,4.57
2023-08-26T14:46:11.359Z,2.85
2023-08-26T14:48:38.773Z,0.93
2023-08-26T14:51:06.959Z,1.10
2023-08-26T14:53:34.461Z,3.13
2023-08-26T14:56:05.002Z,1.83
2023-08-26T14:58:32.465Z,1.90
2023-08-26T15:01:00.052Z,1.80
2023-08-26T15:03:27.569Z,1.02
2023-08-26T15:05:55.902Z,1.98
2023-08-26T15:08:23.288Z,1.05
2023-08-26T15:10:50.802Z,1.65
2023-08-26T15:13:19.398Z,2.30
2023-08-26T15:15:47.726Z,1.75
2023-08-26T15:18:15.623Z,1.75
2023-08-26T15:20:44.659Z,1.05
2023-08-26T15:23:12.857Z,0.70
2023-08-26T15:25:41.396Z,0.80
2023-08-26T15:28:10.806Z,1.70
2023-08-26T15:30:38.618Z,0.73
2023-08-26T15:33:06.244Z,0.60
2023-08-26T15:35:33.786Z,0.52
2023-08-26T15:38:02.877Z,1.00
2023-08-26T15:40:31.863Z,2.08
2023-08-26T15:42:59.350Z,1.00
2023-08-26T15:45:26.843Z,1.33
2023-08-26T15:47:56.936Z,0.82
2023-08-26T15:50:24.685Z,0.70
2023-08-26T15:52:54.925Z,1.27
2023-08-26T15:55:22.289Z,2.05
2023-08-26T15:57:49.653Z,0.88
2023-08-26T16:00:18.503Z,1.45
2023-08-26T16:02:46.281Z,0.98
2023-08-26T16:05:14.901Z,1.60
2023-08-26T16:07:45.960Z,2.13
2023-08-26T16:10:14.006Z,0.90
2023-08-26T16:12:41.541Z,0.60
2023-08-26T16:15:09.222Z,1.27
2023-08-26T16:17:36.820Z,0.80
2023-08-26T16:20:04.352Z,2.60
2023-08-26T16:22:31.722Z,1.17
2023-08-26T16:25:00.044Z,4.32
2023-08-26T16:27:27.487Z,2.28
2023-08-26T16:29:54.925Z,1.17
2023-08-26T16:32:22.765Z,2.65
2023-08-26T16:34:50.329Z,2.10
2023-08-26T16:37:17.705Z,0.43
2023-08-26T16:39:45.181Z,2.30
2023-08-26T16:42:12.605Z,0.52
2023-08-26T16:44:39.958Z,1.35
2023-08-26T16:47:08.555Z,1.15
2023-08-26T16:49:35.938Z,1.30
2023-08-26T16:52:03.575Z,1.58
2023-08-26T16:54:31.294Z,0.75
2023-08-26T16:56:59.584Z,1.45
2023-08-26T16:59:27.044Z,1.75
2023-08-26T17:01:54.451Z,1.10
2023-08-26T17:04:22.023Z,3.47
2023-08-26T17:06:49.402Z,0.80
2023-08-26T17:09:16.768Z,1.48
2023-08-26T17:11:44.167Z,1.38
2023-08-26T17:14:11.563Z,0.73
2023-08-26T17:16:39.114Z,0.70
2023-08-26T17:19:06.571Z,0.50
2023-08-26T17:21:33.974Z,1.70
2023-08-26T17:24:01.523Z,0.73
2023-08-26T17:26:28.956Z,2.22
2023-08-26T17:28:56.394Z,1.67
2023-08-26T17:31:23.828Z,0.63
2023-08-26T17:33:51.191Z,0.45
2023-08-26T17:36:21.266Z,0.70
2023-08-26T17:38:48.797Z,1.77
2023-08-26T17:41:16.250Z,0.40
2023-08-26T17:43:43.666Z,1.85
2023-08-26T17:46:11.104Z,1.60
2023-08-26T17:48:38.819Z,0.75
2023-08-26T17:51:06.235Z,2.25
2023-08-26T17:53:33.681Z,1.48
2023-08-26T17:56:01.073Z,1.25
2023-08-26T17:58:28.495Z,1.45
2023-08-26T18:00:58.969Z,2.10
2023-08-26T18:03:26.479Z,5.18
2023-08-26T18:05:53.921Z,2.80
2023-08-26T18:08:24.140Z,0.63
2023-08-26T18:10:51.806Z,1.27
2023-08-26T18:13:19.542Z,1.15
2023-08-26T18:15:46.940Z,1.67
2023-08-26T18:18:14.298Z,0.63
2023-08-26T18:20:42.790Z,0.90
2023-08-26T18:23:10.161Z,0.60
2023-08-26T18:25:37.562Z,2.78
2023-08-26T18:28:05.122Z,1.40
2023-08-26T18:30:32.768Z,1.40
2023-08-26T18:33:00.513Z,1.55
2023-08-26T18:35:28.147Z,3.20
2023-08-26T18:37:55.727Z,1.60
2023-08-26T18:40:25.560Z,1.05
2023-08-26T18:42:54.873Z,0.75
2023-08-26T18:45:22.305Z,0.80
2023-08-26T18:47:49.714Z,0.77
2023-08-26T18:50:17.185Z,0.70
2023-08-26T18:52:44.609Z,2.92
2023-08-26T18:55:11.961Z,5.57
2023-08-26T18:57:39.564Z,2.88
2023-08-26T19:00:07.462Z,3.13
2023-08-26T19:02:35.092Z,1.38
2023-08-26T19:05:03.069Z,1.00
2023-08-26T19:07:30.576Z,0.60
2023-08-26T19:09:58.071Z,0.57
2023-08-26T19:12:25.410Z,2.55
2023-08-26T19:14:52.933Z,1.70
2023-08-26T19:17:22.453Z,2.45
2023-08-26T19:19:50.043Z,0.73
2023-08-26T19:22:17.447Z,3.55
2023-08-26T19:24:44.904Z,1.75
2023-08-26T19:27:12.339Z,2.13
2023-08-26T19:29:39.738Z,0.73
2023-08-26T19:32:07.144Z,2.05
2023-08-26T19:34:34.605Z,0.80
2023-08-26T19:37:02.426Z,3.55
2023-08-26T19:39:29.815Z,4.47
2023-08-26T19:41:57.326Z,2.55
2023-08-26T19:44:24.726Z,0.80
2023-08-26T19:46:52.107Z,0.60
2023-08-26T19:49:19.832Z,1.75
2023-08-26T19:51:47.375Z,5.05
2023-08-26T19:54:15.593Z,1.98
2023-08-26T19:56:43.006Z,2.35
2023-08-26T19:59:10.406Z,2.28
2023-08-26T20:01:37.959Z,0.60
2023-08-26T20:04:05.499Z,0.73
2023-08-26T20:06:32.925Z,1.23
2023-08-26T20:09:00.290Z,0.70
2023-08-26T20:11:27.693Z,1.05
2023-08-26T20:13:55.886Z,1.02
2023-08-26T20:16:23.316Z,2.70
2023-08-26T20:18:51.245Z,0.95
2023-08-26T20:21:18.682Z,0.80
2023-08-26T20:23:46.083Z,1.00
2023-08-26T20:26:14.020Z,1.20
2023-08-26T20:28:41.504Z,0.73
2023-08-26T20:31:09.121Z,2.28
2023-08-26T20:33:36.629Z,0.55
2023-08-26T20:36:04.979Z,2.25
2023-08-26T20:38:33.046Z,1.15
2023-08-26T20:41:05.076Z,1.88
2023-08-26T20:43:32.758Z,2.47
2023-08-26T20:46:01.408Z,0.60
2023-08-26T20:48:29.421Z,2.78
2023-08-26T20:50:57.240Z,1.92
2023-08-26T20:53:24.849Z,1.00
2023-08-26T20:55:55.386Z,3.63
2023-08-26T20:58:23.027Z,2.58
2023-08-26T21:00:50.470Z,1.90
2023-08-26T21:03:18.733Z,0.93
2023-08-26T21:05:46.740Z,0.68
2023-08-26T21:08:14.580Z,2.92
2023-08-26T21:10:42.096Z,4.80
2023-08-26T21:13:10.405Z,2.05
2023-08-26T21:15:38.045Z,0.95
2023-08-26T21:18:05.671Z,3.38
2023-08-26T21:20:33.251Z,0.50
2023-08-26T21:23:00.928Z,1.17
2023-08-26T21:25:29.893Z,0.60
2023-08-26T21:27:57.327Z,1.05
2023-08-26T21:30:24.830Z,2.05
2023-08-26T21:32:52.396Z,1.52
2023-08-26T21:35:19.808Z,2.58
2023-08-26T21:37:47.260Z,2.25
2023-08-26T21:40:15.404Z,2.17
2023-08-26T21:42:42.831Z,1.77
2023-08-26T21:45:10.881Z,0.95
2023-08-26T21:47:38.562Z,1.90
2023-08-26T21:50:06.552Z,0.90
2023-08-26T21:52:33.972Z,1.25
2023-08-26T21:55:01.406Z,2.70
2023-08-26T21:57:28.926Z,2.50
2023-08-26T21:59:56.843Z,1.40
2023-08-26T22:02:24.237Z,1.35
2023-08-26T22:04:51.733Z,2.53
2023-08-26T22:07:19.137Z,1.40
2023-08-26T22:09:46.684Z,4.93
2023-08-26T22:12:15.850Z,2.67
2023-08-26T22:14:43.279Z,1.42
2023-08-26T22:17:10.626Z,0.52
2023-08-26T22:19:38.057Z,0.70
2023-08-26T22:22:05.470Z,1.67
2023-08-26T22:24:32.781Z,0.95
2023-08-26T22:27:00.139Z,1.00
2023-08-26T22:29:27.516Z,1.90
2023-08-26T22:31:54.885Z,1.75
2023-08-26T22:34:22.643Z,0.75
2023-08-26T22:36:50.042Z,3.00
2023-08-26T22:39:19.850Z,4.00
2023-08-26T22:41:53.109Z,3.03
2023-08-26T22:44:21.141Z,0.68
2023-08-26T22:46:48.703Z,1.13
2023-08-26T22:49:16.210Z,2.03
2023-08-26T22:51:43.643Z,1.17
2023-08-26T22:54:11.027Z,1.15
2023-08-26T22:56:38.444Z,0.95
2023-08-26T22:59:06.261Z,2.65
2023-08-26T23:01:33.764Z,1.95
2023-08-26T23:04:01.224Z,2.97
2023-08-26T23:06:28.697Z,4.40
2023-08-26T23:08:56.185Z,0.93
2023-08-26T23:11:23.663Z,2.85
2023-08-26T23:13:51.029Z,1.45
2023-08-26T23:16:18.488Z,1.88
2023-08-26T23:18:45.966Z,1.90
2023-08-26T23:21:13.368Z,1.75
2023-08-26T23:23:40.771Z,1.38
2023-08-26T23:26:08.171Z,2.15
2023-08-26T23:28:36.102Z,2.42
2023-08-26T23:31:06.840Z,1.25
2023-08-26T23:33:34.275Z,1.63
2023-08-26T23:36:01.674Z,1.13
2023-08-26T23:38:29.060Z,0.90
2023-08-26T23:40:56.410Z,0.95
2023-08-26T23:43:23.939Z,1.85
2023-08-26T23:45:51.337Z,2.80
2023-08-26T23:48:19.451Z,1.90
2023-08-26T23:50:47.220Z,1.02
2023-08-26T23:53:14.779Z,2.35
2023-08-26T23:55:42.088Z,2.83
2023-08-26T23:58:09.465Z,1.30
